sensor_id;sensor_type;location;lat;lon;timestamp;P1;durP1;ratioP1;P2;durP2;ratioP2
8683;SDS011;4379;59.744;18.206;2024-02-23T00:02:19;34.23;;;18.23;;
8683;SDS011;4379;59.744;18.206;2024-02-23T00:04:46;32.63;;;18.90;;
8683;SDS011;4379;59.744;18.206;2024-02-23T00:07:13;34.43;;;19.30;;
8683;SDS011;4379;59.744;18.206;2024-02-23T00:09:40;36.17;;;20.03;;
8683;SDS011;4379;59.744;18.206;2024-02-23T00:12:07;35.83;;;20.67;;
8683;SDS011;4379;59.744;18.206;2024-02-23T00:14:35;42.57;;;20.47;;
8683;SDS011;4379;59.744;18.206;2024-02-23T00:17:03;34.27;;;20.00;;
8683;SDS011;4379;59.744;18.206;2024-02-23T00:19:30;35.17;;;19.77;;
8683;SDS011;4379;59.744;18.206;2024-02-23T00:21:57;45.40;;;21.67;;
8683;SDS011;4379;59.744;18.206;2024-02-23T00:24:26;36.93;;;20.50;;
8683;SDS011;4379;59.744;18.206;2024-02-23T00:26:53;33.50;;;20.10;;
8683;SDS011;4379;59.744;18.206;2024-02-23T00:29:20;33.10;;;18.80;;
8683;SDS011;4379;59.744;18.206;2024-02-23T00:31:49;31.37;;;19.00;;
8683;SDS011;4379;59.744;18.206;2024-02-23T00:34:16;27.40;;;17.67;;
8683;SDS011;4379;59.744;18.206;2024-02-23T00:36:43;33.03;;;17.97;;
8683;SDS011;4379;59.744;18.206;2024-02-23T00:39:15;27.93;;;18.80;;
8683;SDS011;4379;59.744;18.206;2024-02-23T00:41:42;32.53;;;17.80;;
8683;SDS011;4379;59.744;18.206;2024-02-23T00:44:09;24.90;;;17.53;;
8683;SDS011;4379;59.744;18.206;2024-02-23T00:46:36;22.77;;;15.57;;
8683;SDS011;4379;59.744;18.206;2024-02-23T00:49:03;25.33;;;16.23;;
8683;SDS011;4379;59.744;18.206;2024-02-23T00:51:30;27.50;;;16.50;;
8683;SDS011;4379;59.744;18.206;2024-02-23T00:53:57;24.00;;;16.03;;
8683;SDS011;4379;59.744;18.206;2024-02-23T00:56:24;25.80;;;16.90;;
8683;SDS011;4379;59.744;18.206;2024-02-23T00:59:01;22.30;;;15.93;;
8683;SDS011;4379;59.744;18.206;2024-02-23T01:01:28;22.33;;;15.80;;
8683;SDS011;4379;59.744;18.206;2024-02-23T01:03:56;20.80;;;15.70;;
8683;SDS011;4379;59.744;18.206;2024-02-23T01:06:23;23.47;;;16.17;;
8683;SDS011;4379;59.744;18.206;2024-02-23T01:08:51;20.17;;;16.27;;
8683;SDS011;4379;59.744;18.206;2024-02-23T01:11:18;21.83;;;15.13;;
8683;SDS011;4379;59.744;18.206;2024-02-23T01:13:45;18.13;;;13.93;;
8683;SDS011;4379;59.744;18.206;2024-02-23T01:16:12;16.07;;;13.87;;
8683;SDS011;4379;59.744;18.206;2024-02-23T01:18:39;20.80;;;14.10;;
8683;SDS011;4379;59.744;18.206;2024-02-23T01:21:07;19.17;;;13.73;;
8683;SDS011;4379;59.744;18.206;2024-02-23T01:23:34;18.17;;;13.73;;
8683;SDS011;4379;59.744;18.206;2024-02-23T01:26:01;16.00;;;13.30;;
8683;SDS011;4379;59.744;18.206;2024-02-23T01:28:29;17.87;;;14.33;;
8683;SDS011;4379;59.744;18.206;2024-02-23T01:30:56;17.30;;;13.07;;
8683;SDS011;4379;59.744;18.206;2024-02-23T01:33:23;13.43;;;12.17;;
8683;SDS011;4379;59.744;18.206;2024-02-23T01:35:51;16.90;;;12.00;;
8683;SDS011;4379;59.744;18.206;2024-02-23T01:38:18;13.23;;;11.87;;
8683;SDS011;4379;59.744;18.206;2024-02-23T01:40:48;12.00;;;10.77;;
8683;SDS011;4379;59.744;18.206;2024-02-23T01:43:15;11.97;;;10.87;;
8683;SDS011;4379;59.744;18.206;2024-02-23T01:45:42;12.00;;;10.80;;
8683;SDS011;4379;59.744;18.206;2024-02-23T01:48:09;12.87;;;10.50;;
8683;SDS011;4379;59.744;18.206;2024-02-23T01:50:37;11.83;;;10.23;;
8683;SDS011;4379;59.744;18.206;2024-02-23T01:53:04;10.90;;;9.90;;
8683;SDS011;4379;59.744;18.206;2024-02-23T01:55:32;11.67;;;10.43;;
8683;SDS011;4379;59.744;18.206;2024-02-23T01:58:02;14.80;;;10.73;;
8683;SDS011;4379;59.744;18.206;2024-02-23T02:00:34;11.40;;;10.30;;
8683;SDS011;4379;59.744;18.206;2024-02-23T02:03:02;13.77;;;11.30;;
8683;SDS011;4379;59.744;18.206;2024-02-23T02:05:30;11.90;;;10.80;;
8683;SDS011;4379;59.744;18.206;2024-02-23T02:07:57;13.00;;;11.70;;
8683;SDS011;4379;59.744;18.206;2024-02-23T02:10:27;12.43;;;11.20;;
8683;SDS011;4379;59.744;18.206;2024-02-23T02:12:54;13.33;;;12.10;;
8683;SDS011;4379;59.744;18.206;2024-02-23T02:15:21;16.00;;;12.33;;
8683;SDS011;4379;59.744;18.206;2024-02-23T02:17:48;14.57;;;13.00;;
8683;SDS011;4379;59.744;18.206;2024-02-23T02:20:17;14.73;;;13.23;;
8683;SDS011;4379;59.744;18.206;2024-02-23T02:22:49;13.30;;;11.90;;
8683;SDS011;4379;59.744;18.206;2024-02-23T02:25:17;14.27;;;12.77;;
8683;SDS011;4379;59.744;18.206;2024-02-23T02:27:44;16.37;;;13.10;;
8683;SDS011;4379;59.744;18.206;2024-02-23T02:30:12;16.87;;;13.50;;
8683;SDS011;4379;59.744;18.206;2024-02-23T02:32:39;17.23;;;14.63;;
8683;SDS011;4379;59.744;18.206;2024-02-23T02:35:07;16.03;;;14.07;;
8683;SDS011;4379;59.744;18.206;2024-02-23T02:37:36;19.13;;;13.97;;
8683;SDS011;4379;59.744;18.206;2024-02-23T02:40:03;17.03;;;14.63;;
8683;SDS011;4379;59.744;18.206;2024-02-23T02:42:32;19.07;;;14.93;;
8683;SDS011;4379;59.744;18.206;2024-02-23T02:44:59;17.67;;;14.17;;
8683;SDS011;4379;59.744;18.206;2024-02-23T02:47:27;20.77;;;14.67;;
8683;SDS011;4379;59.744;18.206;2024-02-23T02:49:55;20.37;;;15.30;;
8683;SDS011;4379;59.744;18.206;2024-02-23T02:52:22;19.57;;;14.80;;
8683;SDS011;4379;59.744;18.206;2024-02-23T02:54:50;19.00;;;15.33;;
8683;SDS011;4379;59.744;18.206;2024-02-23T02:57:17;19.63;;;15.17;;
8683;SDS011;4379;59.744;18.206;2024-02-23T02:59:44;24.90;;;16.70;;
8683;SDS011;4379;59.744;18.206;2024-02-23T03:02:12;23.27;;;14.77;;
8683;SDS011;4379;59.744;18.206;2024-02-23T03:04:46;24.83;;;16.37;;
8683;SDS011;4379;59.744;18.206;2024-02-23T03:07:16;18.70;;;15.97;;
8683;SDS011;4379;59.744;18.206;2024-02-23T03:09:44;21.63;;;15.97;;
8683;SDS011;4379;59.744;18.206;2024-02-23T03:12:11;22.97;;;15.40;;
8683;SDS011;4379;59.744;18.206;2024-02-23T03:14:38;22.53;;;15.87;;
8683;SDS011;4379;59.744;18.206;2024-02-23T03:17:07;24.70;;;17.03;;
8683;SDS011;4379;59.744;18.206;2024-02-23T03:19:36;19.97;;;15.53;;
8683;SDS011;4379;59.744;18.206;2024-02-23T03:22:04;24.37;;;17.13;;
8683;SDS011;4379;59.744;18.206;2024-02-23T03:24:31;23.00;;;17.27;;
8683;SDS011;4379;59.744;18.206;2024-02-23T03:26:58;18.60;;;15.53;;
8683;SDS011;4379;59.744;18.206;2024-02-23T03:29:26;22.13;;;15.70;;
8683;SDS011;4379;59.744;18.206;2024-02-23T03:31:56;19.97;;;15.37;;
8683;SDS011;4379;59.744;18.206;2024-02-23T03:34:24;18.27;;;14.73;;
8683;SDS011;4379;59.744;18.206;2024-02-23T03:36:51;18.67;;;15.60;;
8683;SDS011;4379;59.744;18.206;2024-02-23T03:39:18;24.83;;;16.17;;
8683;SDS011;4379;59.744;18.206;2024-02-23T03:41:45;19.47;;;15.30;;
8683;SDS011;4379;59.744;18.206;2024-02-23T03:44:12;19.70;;;15.13;;
8683;SDS011;4379;59.744;18.206;2024-02-23T03:46:39;19.97;;;15.57;;
8683;SDS011;4379;59.744;18.206;2024-02-23T03:49:06;21.80;;;15.33;;
8683;SDS011;4379;59.744;18.206;2024-02-23T03:51:33;18.97;;;15.33;;
8683;SDS011;4379;59.744;18.206;2024-02-23T03:54:03;17.53;;;15.40;;
8683;SDS011;4379;59.744;18.206;2024-02-23T03:56:30;18.23;;;14.63;;
8683;SDS011;4379;59.744;18.206;2024-02-23T03:59:03;18.37;;;14.90;;
8683;SDS011;4379;59.744;18.206;2024-02-23T04:01:31;16.63;;;14.43;;
8683;SDS011;4379;59.744;18.206;2024-02-23T04:03:58;16.80;;;14.30;;
8683;SDS011;4379;59.744;18.206;2024-02-23T04:06:25;18.90;;;14.07;;
8683;SDS011;4379;59.744;18.206;2024-02-23T04:08:52;15.00;;;13.50;;
8683;SDS011;4379;59.744;18.206;2024-02-23T04:11:20;16.97;;;12.70;;
8683;SDS011;4379;59.744;18.206;2024-02-23T04:13:47;15.33;;;12.57;;
8683;SDS011;4379;59.744;18.206;2024-02-23T04:16:18;19.93;;;13.80;;
8683;SDS011;4379;59.744;18.206;2024-02-23T04:18:48;14.33;;;11.60;;
8683;SDS011;4379;59.744;18.206;2024-02-23T04:21:15;15.67;;;13.17;;
8683;SDS011;4379;59.744;18.206;2024-02-23T04:23:43;14.57;;;13.10;;
8683;SDS011;4379;59.744;18.206;2024-02-23T04:26:10;18.03;;;13.53;;
8683;SDS011;4379;59.744;18.206;2024-02-23T04:28:38;16.37;;;14.23;;
8683;SDS011;4379;59.744;18.206;2024-02-23T04:31:09;16.00;;;14.40;;
8683;SDS011;4379;59.744;18.206;2024-02-23T04:33:36;17.80;;;13.53;;
8683;SDS011;4379;59.744;18.206;2024-02-23T04:36:04;17.73;;;14.27;;
8683;SDS011;4379;59.744;18.206;2024-02-23T04:38:33;17.93;;;14.60;;
8683;SDS011;4379;59.744;18.206;2024-02-23T04:41:03;22.77;;;16.13;;
8683;SDS011;4379;59.744;18.206;2024-02-23T04:43:31;18.97;;;14.70;;
8683;SDS011;4379;59.744;18.206;2024-02-23T04:45:59;21.30;;;15.83;;
8683;SDS011;4379;59.744;18.206;2024-02-23T04:48:26;26.63;;;17.80;;
8683;SDS011;4379;59.744;18.206;2024-02-23T04:50:53;23.80;;;17.33;;
8683;SDS011;4379;59.744;18.206;2024-02-23T04:53:20;23.47;;;17.03;;
8683;SDS011;4379;59.744;18.206;2024-02-23T04:55:48;27.30;;;17.60;;
8683;SDS011;4379;59.744;18.206;2024-02-23T04:58:15;23.67;;;17.47;;
8683;SDS011;4379;59.744;18.206;2024-02-23T05:00:45;21.50;;;15.13;;
8683;SDS011;4379;59.744;18.206;2024-02-23T05:03:12;22.63;;;15.80;;
8683;SDS011;4379;59.744;18.206;2024-02-23T05:05:39;19.77;;;15.00;;
8683;SDS011;4379;59.744;18.206;2024-02-23T05:08:06;18.10;;;14.60;;
8683;SDS011;4379;59.744;18.206;2024-02-23T05:10:33;15.27;;;13.53;;
8683;SDS011;4379;59.744;18.206;2024-02-23T05:13:01;15.50;;;13.87;;
8683;SDS011;4379;59.744;18.206;2024-02-23T05:15:28;14.33;;;12.83;;
8683;SDS011;4379;59.744;18.206;2024-02-23T05:17:55;13.10;;;11.67;;
8683;SDS011;4379;59.744;18.206;2024-02-23T05:20:22;14.57;;;11.60;;
8683;SDS011;4379;59.744;18.206;2024-02-23T05:22:49;11.50;;;10.50;;
8683;SDS011;4379;59.744;18.206;2024-02-23T05:25:16;9.33;;;8.63;;
8683;SDS011;4379;59.744;18.206;2024-02-23T05:27:43;8.83;;;8.13;;
8683;SDS011;4379;59.744;18.206;2024-02-23T05:30:10;9.87;;;8.97;;
8683;SDS011;4379;59.744;18.206;2024-02-23T05:32:38;7.87;;;7.27;;
8683;SDS011;4379;59.744;18.206;2024-02-23T05:35:05;7.70;;;7.20;;
8683;SDS011;4379;59.744;18.206;2024-02-23T05:37:33;8.43;;;7.73;;
8683;SDS011;4379;59.744;18.206;2024-02-23T05:40:01;7.70;;;7.10;;
8683;SDS011;4379;59.744;18.206;2024-02-23T05:42:33;8.33;;;7.67;;
8683;SDS011;4379;59.744;18.206;2024-02-23T05:45:04;8.43;;;7.63;;
8683;SDS011;4379;59.744;18.206;2024-02-23T05:47:36;8.10;;;7.43;;
8683;SDS011;4379;59.744;18.206;2024-02-23T05:50:04;7.77;;;7.27;;
8683;SDS011;4379;59.744;18.206;2024-02-23T05:52:32;8.10;;;7.33;;
8683;SDS011;4379;59.744;18.206;2024-02-23T05:55:00;7.17;;;6.57;;
8683;SDS011;4379;59.744;18.206;2024-02-23T05:57:27;8.60;;;7.90;;
8683;SDS011;4379;59.744;18.206;2024-02-23T05:59:55;8.27;;;7.63;;
8683;SDS011;4379;59.744;18.206;2024-02-23T06:02:22;7.07;;;6.57;;
8683;SDS011;4379;59.744;18.206;2024-02-23T06:04:50;7.80;;;7.20;;
8683;SDS011;4379;59.744;18.206;2024-02-23T06:07:17;7.23;;;6.73;;
8683;SDS011;4379;59.744;18.206;2024-02-23T06:09:44;8.03;;;7.53;;
8683;SDS011;4379;59.744;18.206;2024-02-23T06:12:11;7.77;;;7.20;;
8683;SDS011;4379;59.744;18.206;2024-02-23T06:14:38;8.20;;;7.50;;
8683;SDS011;4379;59.744;18.206;2024-02-23T06:17:06;8.90;;;8.20;;
8683;SDS011;4379;59.744;18.206;2024-02-23T06:19:34;9.63;;;8.83;;
8683;SDS011;4379;59.744;18.206;2024-02-23T06:22:02;9.53;;;8.67;;
8683;SDS011;4379;59.744;18.206;2024-02-23T06:24:29;9.77;;;8.97;;
8683;SDS011;4379;59.744;18.206;2024-02-23T06:26:56;10.00;;;9.20;;
8683;SDS011;4379;59.744;18.206;2024-02-23T06:29:24;12.83;;;10.50;;
8683;SDS011;4379;59.744;18.206;2024-02-23T06:31:51;16.03;;;11.90;;
8683;SDS011;4379;59.744;18.206;2024-02-23T06:34:18;15.70;;;12.37;;
8683;SDS011;4379;59.744;18.206;2024-02-23T06:36:45;17.37;;;13.33;;
8683;SDS011;4379;59.744;18.206;2024-02-23T06:39:12;20.73;;;16.07;;
8683;SDS011;4379;59.744;18.206;2024-02-23T06:41:40;16.80;;;14.67;;
8683;SDS011;4379;59.744;18.206;2024-02-23T06:44:07;22.53;;;15.30;;
8683;SDS011;4379;59.744;18.206;2024-02-23T06:46:34;22.17;;;16.60;;
8683;SDS011;4379;59.744;18.206;2024-02-23T06:49:01;15.60;;;12.90;;
8683;SDS011;4379;59.744;18.206;2024-02-23T06:51:28;15.80;;;13.70;;
8683;SDS011;4379;59.744;18.206;2024-02-23T06:53:55;14.87;;;13.37;;
8683;SDS011;4379;59.744;18.206;2024-02-23T06:56:23;12.73;;;11.43;;
8683;SDS011;4379;59.744;18.206;2024-02-23T06:58:50;11.47;;;10.47;;
8683;SDS011;4379;59.744;18.206;2024-02-23T07:01:19;11.13;;;10.10;;
8683;SDS011;4379;59.744;18.206;2024-02-23T07:03:47;10.00;;;9.20;;
8683;SDS011;4379;59.744;18.206;2024-02-23T07:06:17;9.60;;;8.90;;
8683;SDS011;4379;59.744;18.206;2024-02-23T07:08:45;8.90;;;8.30;;
8683;SDS011;4379;59.744;18.206;2024-02-23T07:11:12;9.17;;;8.47;;
8683;SDS011;4379;59.744;18.206;2024-02-23T07:13:42;9.43;;;8.73;;
8683;SDS011;4379;59.744;18.206;2024-02-23T07:16:09;11.63;;;10.57;;
8683;SDS011;4379;59.744;18.206;2024-02-23T07:18:36;15.60;;;13.67;;
8683;SDS011;4379;59.744;18.206;2024-02-23T07:21:03;18.90;;;15.23;;
8683;SDS011;4379;59.744;18.206;2024-02-23T07:23:30;17.03;;;14.07;;
8683;SDS011;4379;59.744;18.206;2024-02-23T07:25:58;17.80;;;15.10;;
8683;SDS011;4379;59.744;18.206;2024-02-23T07:28:25;19.33;;;15.63;;
8683;SDS011;4379;59.744;18.206;2024-02-23T07:30:55;20.17;;;15.00;;
8683;SDS011;4379;59.744;18.206;2024-02-23T07:33:22;14.00;;;12.60;;
8683;SDS011;4379;59.744;18.206;2024-02-23T07:35:49;14.97;;;12.60;;
8683;SDS011;4379;59.744;18.206;2024-02-23T07:38:16;12.40;;;11.23;;
8683;SDS011;4379;59.744;18.206;2024-02-23T07:40:47;12.87;;;11.77;;
8683;SDS011;4379;59.744;18.206;2024-02-23T07:43:14;13.27;;;11.87;;
8683;SDS011;4379;59.744;18.206;2024-02-23T07:45:41;12.67;;;11.60;;
8683;SDS011;4379;59.744;18.206;2024-02-23T07:48:09;12.53;;;11.37;;
8683;SDS011;4379;59.744;18.206;2024-02-23T07:50:36;13.13;;;11.93;;
8683;SDS011;4379;59.744;18.206;2024-02-23T07:53:03;14.00;;;12.70;;
8683;SDS011;4379;59.744;18.206;2024-02-23T07:55:30;13.70;;;12.50;;
8683;SDS011;4379;59.744;18.206;2024-02-23T07:57:58;13.90;;;12.53;;
8683;SDS011;4379;59.744;18.206;2024-02-23T08:00:28;14.40;;;12.93;;
8683;SDS011;4379;59.744;18.206;2024-02-23T08:02:55;14.60;;;13.20;;
8683;SDS011;4379;59.744;18.206;2024-02-23T08:05:26;12.90;;;11.40;;
8683;SDS011;4379;59.744;18.206;2024-02-23T08:07:54;12.97;;;11.60;;
8683;SDS011;4379;59.744;18.206;2024-02-23T08:10:21;13.10;;;11.87;;
8683;SDS011;4379;59.744;18.206;2024-02-23T08:12:48;12.23;;;11.30;;
8683;SDS011;4379;59.744;18.206;2024-02-23T08:15:16;11.30;;;10.40;;
8683;SDS011;4379;59.744;18.206;2024-02-23T08:17:43;11.53;;;10.73;;
8683;SDS011;4379;59.744;18.206;2024-02-23T08:20:11;10.57;;;9.87;;
8683;SDS011;4379;59.744;18.206;2024-02-23T08:22:38;10.93;;;9.93;;
8683;SDS011;4379;59.744;18.206;2024-02-23T08:25:05;10.30;;;9.50;;
8683;SDS011;4379;59.744;18.206;2024-02-23T08:27:33;10.03;;;9.17;;
8683;SDS011;4379;59.744;18.206;2024-02-23T08:30:00;9.53;;;8.87;;
8683;SDS011;4379;59.744;18.206;2024-02-23T08:32:27;10.40;;;9.60;;
8683;SDS011;4379;59.744;18.206;2024-02-23T08:34:54;9.90;;;9.13;;
8683;SDS011;4379;59.744;18.206;2024-02-23T08:37:26;10.20;;;9.60;;
8683;SDS011;4379;59.744;18.206;2024-02-23T08:39:53;10.20;;;9.60;;
8683;SDS011;4379;59.744;18.206;2024-02-23T08:42:20;10.53;;;9.57;;
8683;SDS011;4379;59.744;18.206;2024-02-23T08:44:48;9.63;;;8.90;;
8683;SDS011;4379;59.744;18.206;2024-02-23T08:47:15;9.67;;;9.00;;
8683;SDS011;4379;59.744;18.206;2024-02-23T08:49:42;9.63;;;8.90;;
8683;SDS011;4379;59.744;18.206;2024-02-23T08:52:09;9.23;;;8.63;;
8683;SDS011;4379;59.744;18.206;2024-02-23T08:54:36;9.70;;;8.80;;
8683;SDS011;4379;59.744;18.206;2024-02-23T08:57:04;9.87;;;9.17;;
8683;SDS011;4379;59.744;18.206;2024-02-23T08:59:31;10.33;;;9.53;;
8683;SDS011;4379;59.744;18.206;2024-02-23T09:01:58;10.53;;;9.83;;
8683;SDS011;4379;59.744;18.206;2024-02-23T09:04:25;10.73;;;9.93;;
8683;SDS011;4379;59.744;18.206;2024-02-23T09:06:52;9.83;;;9.13;;
8683;SDS011;4379;59.744;18.206;2024-02-23T09:09:20;9.80;;;9.10;;
8683;SDS011;4379;59.744;18.206;2024-02-23T09:11:47;8.97;;;8.37;;
8683;SDS011;4379;59.744;18.206;2024-02-23T09:14:15;9.13;;;8.33;;
8683;SDS011;4379;59.744;18.206;2024-02-23T09:16:43;9.57;;;8.70;;
8683;SDS011;4379;59.744;18.206;2024-02-23T09:19:10;8.17;;;7.67;;
8683;SDS011;4379;59.744;18.206;2024-02-23T09:21:38;8.47;;;7.97;;
8683;SDS011;4379;59.744;18.206;2024-02-23T09:24:05;8.73;;;8.13;;
8683;SDS011;4379;59.744;18.206;2024-02-23T09:26:32;7.17;;;6.77;;
8683;SDS011;4379;59.744;18.206;2024-02-23T09:29:00;7.77;;;7.27;;
8683;SDS011;4379;59.744;18.206;2024-02-23T09:31:27;7.13;;;6.73;;
8683;SDS011;4379;59.744;18.206;2024-02-23T09:33:55;6.87;;;6.47;;
8683;SDS011;4379;59.744;18.206;2024-02-23T09:36:22;6.77;;;6.37;;
8683;SDS011;4379;59.744;18.206;2024-02-23T09:38:50;6.83;;;6.40;;
8683;SDS011;4379;59.744;18.206;2024-02-23T09:41:20;7.13;;;6.70;;
8683;SDS011;4379;59.744;18.206;2024-02-23T09:43:49;7.00;;;6.60;;
8683;SDS011;4379;59.744;18.206;2024-02-23T09:46:17;7.40;;;6.90;;
8683;SDS011;4379;59.744;18.206;2024-02-23T09:48:45;7.57;;;7.07;;
8683;SDS011;4379;59.744;18.206;2024-02-23T09:51:17;7.30;;;6.80;;
8683;SDS011;4379;59.744;18.206;2024-02-23T09:53:44;7.23;;;6.83;;
8683;SDS011;4379;59.744;18.206;2024-02-23T09:56:12;7.27;;;6.77;;
8683;SDS011;4379;59.744;18.206;2024-02-23T09:58:43;7.47;;;6.97;;
8683;SDS011;4379;59.744;18.206;2024-02-23T10:01:14;8.10;;;7.40;;
8683;SDS011;4379;59.744;18.206;2024-02-23T10:03:46;7.73;;;7.20;;
8683;SDS011;4379;59.744;18.206;2024-02-23T10:06:14;8.30;;;7.70;;
8683;SDS011;4379;59.744;18.206;2024-02-23T10:08:41;7.80;;;7.40;;
8683;SDS011;4379;59.744;18.206;2024-02-23T10:11:08;7.77;;;7.27;;
8683;SDS011;4379;59.744;18.206;2024-02-23T10:13:35;8.27;;;7.53;;
8683;SDS011;4379;59.744;18.206;2024-02-23T10:16:03;9.00;;;8.40;;
8683;SDS011;4379;59.744;18.206;2024-02-23T10:18:41;8.63;;;8.10;;
8683;SDS011;4379;59.744;18.206;2024-02-23T10:21:08;9.80;;;8.87;;
8683;SDS011;4379;59.744;18.206;2024-02-23T10:23:35;8.80;;;8.20;;
8683;SDS011;4379;59.744;18.206;2024-02-23T10:26:07;8.37;;;7.70;;
8683;SDS011;4379;59.744;18.206;2024-02-23T10:28:36;8.70;;;8.10;;
8683;SDS011;4379;59.744;18.206;2024-02-23T10:31:14;8.37;;;7.70;;
8683;SDS011;4379;59.744;18.206;2024-02-23T10:33:41;7.90;;;7.30;;
8683;SDS011;4379;59.744;18.206;2024-02-23T10:36:11;7.23;;;6.73;;
8683;SDS011;4379;59.744;18.206;2024-02-23T10:38:41;7.07;;;6.57;;
8683;SDS011;4379;59.744;18.206;2024-02-23T10:41:13;6.47;;;5.97;;
8683;SDS011;4379;59.744;18.206;2024-02-23T10:43:41;6.87;;;6.33;;
8683;SDS011;4379;59.744;18.206;2024-02-23T10:46:11;6.73;;;6.23;;
8683;SDS011;4379;59.744;18.206;2024-02-23T10:48:42;6.37;;;5.87;;
8683;SDS011;4379;59.744;18.206;2024-02-23T10:51:14;5.50;;;5.20;;
8683;SDS011;4379;59.744;18.206;2024-02-23T10:53:46;5.37;;;4.93;;
8683;SDS011;4379;59.744;18.206;2024-02-23T10:56:15;4.77;;;4.33;;
8683;SDS011;4379;59.744;18.206;2024-02-23T10:58:42;4.47;;;4.17;;
8683;SDS011;4379;59.744;18.206;2024-02-23T11:01:09;4.33;;;4.03;;
8683;SDS011;4379;59.744;18.206;2024-02-23T11:03:38;4.13;;;3.83;;
8683;SDS011;4379;59.744;18.206;2024-02-23T11:06:07;4.50;;;4.07;;
8683;SDS011;4379;59.744;18.206;2024-02-23T11:08:35;4.57;;;4.27;;
8683;SDS011;4379;59.744;18.206;2024-02-23T11:11:09;4.47;;;4.17;;
8683;SDS011;4379;59.744;18.206;2024-02-23T11:13:38;4.73;;;4.23;;
8683;SDS011;4379;59.744;18.206;2024-02-23T11:16:07;3.57;;;3.27;;
8683;SDS011;4379;59.744;18.206;2024-02-23T11:18:39;3.40;;;3.10;;
8683;SDS011;4379;59.744;18.206;2024-02-23T11:21:09;3.40;;;3.20;;
8683;SDS011;4379;59.744;18.206;2024-02-23T11:23:48;3.90;;;3.60;;
8683;SDS011;4379;59.744;18.206;2024-02-23T11:26:18;3.63;;;3.33;;
8683;SDS011;4379;59.744;18.206;2024-02-23T11:28:50;3.47;;;3.27;;
8683;SDS011;4379;59.744;18.206;2024-02-23T11:31:21;3.40;;;3.20;;
8683;SDS011;4379;59.744;18.206;2024-02-23T11:33:54;3.47;;;3.20;;
8683;SDS011;4379;59.744;18.206;2024-02-23T11:38:57;2.87;;;2.67;;
8683;SDS011;4379;59.744;18.206;2024-02-23T11:41:26;2.50;;;2.30;;
8683;SDS011;4379;59.744;18.206;2024-02-23T11:43:54;2.50;;;2.40;;
8683;SDS011;4379;59.744;18.206;2024-02-23T11:46:22;2.50;;;2.30;;
8683;SDS011;4379;59.744;18.206;2024-02-23T11:48:49;2.20;;;2.00;;
8683;SDS011;4379;59.744;18.206;2024-02-23T11:51:21;2.00;;;1.90;;
8683;SDS011;4379;59.744;18.206;2024-02-23T11:53:49;1.80;;;1.70;;
8683;SDS011;4379;59.744;18.206;2024-02-23T11:56:17;1.90;;;1.70;;
8683;SDS011;4379;59.744;18.206;2024-02-23T11:58:46;1.07;;;1.07;;
8683;SDS011;4379;59.744;18.206;2024-02-23T12:01:13;1.63;;;1.00;;
8683;SDS011;4379;59.744;18.206;2024-02-23T12:03:40;1.10;;;1.00;;
8683;SDS011;4379;59.744;18.206;2024-02-23T12:06:10;1.20;;;1.10;;
8683;SDS011;4379;59.744;18.206;2024-02-23T12:08:37;1.00;;;0.80;;
8683;SDS011;4379;59.744;18.206;2024-02-23T12:11:05;0.80;;;0.80;;
8683;SDS011;4379;59.744;18.206;2024-02-23T12:13:35;1.13;;;0.90;;
8683;SDS011;4379;59.744;18.206;2024-02-23T12:16:03;1.30;;;0.90;;
8683;SDS011;4379;59.744;18.206;2024-02-23T12:18:33;1.63;;;0.80;;
8683;SDS011;4379;59.744;18.206;2024-02-23T12:21:01;1.70;;;0.70;;
8683;SDS011;4379;59.744;18.206;2024-02-23T12:23:44;1.60;;;0.70;;
8683;SDS011;4379;59.744;18.206;2024-02-23T12:26:12;0.53;;;0.53;;
8683;SDS011;4379;59.744;18.206;2024-02-23T12:28:41;1.43;;;0.70;;
8683;SDS011;4379;59.744;18.206;2024-02-23T12:31:08;1.23;;;0.83;;
8683;SDS011;4379;59.744;18.206;2024-02-23T12:33:36;1.43;;;0.90;;
8683;SDS011;4379;59.744;18.206;2024-02-23T12:36:08;2.77;;;0.90;;
8683;SDS011;4379;59.744;18.206;2024-02-23T12:38:36;1.40;;;0.80;;
8683;SDS011;4379;59.744;18.206;2024-02-23T12:41:04;0.87;;;0.83;;
8683;SDS011;4379;59.744;18.206;2024-02-23T12:43:31;1.90;;;1.00;;
8683;SDS011;4379;59.744;18.206;2024-02-23T12:45:59;0.93;;;0.90;;
8683;SDS011;4379;59.744;18.206;2024-02-23T12:48:27;1.30;;;0.80;;
8683;SDS011;4379;59.744;18.206;2024-02-23T12:50:55;0.50;;;0.50;;
8683;SDS011;4379;59.744;18.206;2024-02-23T12:53:34;1.60;;;0.83;;
8683;SDS011;4379;59.744;18.206;2024-02-23T12:56:11;2.53;;;1.10;;
8683;SDS011;4379;59.744;18.206;2024-02-23T12:58:43;1.27;;;0.97;;
8683;SDS011;4379;59.744;18.206;2024-02-23T13:01:11;1.53;;;0.73;;
8683;SDS011;4379;59.744;18.206;2024-02-23T13:03:39;1.50;;;1.00;;
8683;SDS011;4379;59.744;18.206;2024-02-23T13:06:09;1.27;;;0.90;;
8683;SDS011;4379;59.744;18.206;2024-02-23T13:08:36;2.07;;;0.97;;
8683;SDS011;4379;59.744;18.206;2024-02-23T13:11:05;1.43;;;0.83;;
8683;SDS011;4379;59.744;18.206;2024-02-23T13:13:33;4.43;;;1.00;;
8683;SDS011;4379;59.744;18.206;2024-02-23T13:16:00;1.67;;;1.13;;
8683;SDS011;4379;59.744;18.206;2024-02-23T13:18:28;1.50;;;0.87;;
8683;SDS011;4379;59.744;18.206;2024-02-23T13:20:55;1.20;;;0.90;;
8683;SDS011;4379;59.744;18.206;2024-02-23T13:23:23;2.10;;;1.07;;
8683;SDS011;4379;59.744;18.206;2024-02-23T13:25:51;1.40;;;0.70;;
8683;SDS011;4379;59.744;18.206;2024-02-23T13:28:18;1.20;;;1.00;;
8683;SDS011;4379;59.744;18.206;2024-02-23T13:30:45;2.37;;;1.20;;
8683;SDS011;4379;59.744;18.206;2024-02-23T13:33:12;1.23;;;0.77;;
8683;SDS011;4379;59.744;18.206;2024-02-23T13:35:39;2.30;;;1.00;;
8683;SDS011;4379;59.744;18.206;2024-02-23T13:38:07;2.43;;;1.07;;
8683;SDS011;4379;59.744;18.206;2024-02-23T13:40:35;1.00;;;0.77;;
8683;SDS011;4379;59.744;18.206;2024-02-23T13:43:03;1.30;;;1.00;;
8683;SDS011;4379;59.744;18.206;2024-02-23T13:45:30;2.10;;;1.10;;
8683;SDS011;4379;59.744;18.206;2024-02-23T13:48:01;2.43;;;1.00;;
8683;SDS011;4379;59.744;18.206;2024-02-23T13:50:29;1.93;;;0.90;;
8683;SDS011;4379;59.744;18.206;2024-02-23T13:52:57;1.77;;;1.07;;
8683;SDS011;4379;59.744;18.206;2024-02-23T13:55:25;1.57;;;1.27;;
8683;SDS011;4379;59.744;18.206;2024-02-23T13:57:52;2.90;;;1.40;;
8683;SDS011;4379;59.744;18.206;2024-02-23T14:00:19;3.63;;;1.27;;
8683;SDS011;4379;59.744;18.206;2024-02-23T14:02:47;1.83;;;1.13;;
8683;SDS011;4379;59.744;18.206;2024-02-23T14:05:15;2.23;;;1.17;;
8683;SDS011;4379;59.744;18.206;2024-02-23T14:07:44;1.40;;;1.30;;
8683;SDS011;4379;59.744;18.206;2024-02-23T14:10:12;2.00;;;1.13;;
8683;SDS011;4379;59.744;18.206;2024-02-23T14:12:40;1.57;;;1.03;;
8683;SDS011;4379;59.744;18.206;2024-02-23T14:15:08;2.27;;;1.00;;
8683;SDS011;4379;59.744;18.206;2024-02-23T14:17:35;1.53;;;1.30;;
8683;SDS011;4379;59.744;18.206;2024-02-23T14:20:03;1.13;;;1.03;;
8683;SDS011;4379;59.744;18.206;2024-02-23T14:22:30;2.87;;;1.13;;
8683;SDS011;4379;59.744;18.206;2024-02-23T14:24:58;1.67;;;1.10;;
8683;SDS011;4379;59.744;18.206;2024-02-23T14:27:25;2.40;;;1.20;;
8683;SDS011;4379;59.744;18.206;2024-02-23T14:29:57;2.57;;;1.00;;
8683;SDS011;4379;59.744;18.206;2024-02-23T14:32:25;2.90;;;1.33;;
8683;SDS011;4379;59.744;18.206;2024-02-23T14:34:52;2.60;;;1.43;;
8683;SDS011;4379;59.744;18.206;2024-02-23T14:37:19;3.87;;;1.43;;
8683;SDS011;4379;59.744;18.206;2024-02-23T14:39:46;3.27;;;1.10;;
8683;SDS011;4379;59.744;18.206;2024-02-23T14:42:13;1.70;;;1.00;;
8683;SDS011;4379;59.744;18.206;2024-02-23T14:44:40;1.93;;;1.10;;
8683;SDS011;4379;59.744;18.206;2024-02-23T14:47:07;1.40;;;1.10;;
8683;SDS011;4379;59.744;18.206;2024-02-23T14:49:35;3.73;;;1.27;;
8683;SDS011;4379;59.744;18.206;2024-02-23T14:52:02;2.47;;;1.20;;
8683;SDS011;4379;59.744;18.206;2024-02-23T14:54:31;3.40;;;1.30;;
8683;SDS011;4379;59.744;18.206;2024-02-23T14:56:59;2.47;;;1.20;;